sensor_id;sensor_type;location;lat;lon;timestamp;P1;durP1;ratioP1;P2;durP2;ratioP2
21274;SDS011;36472;52.170;20.884;2022-12-04T00:01:27;61.33;;;26.57;;
21274;SDS011;36472;52.170;20.884;2022-12-04T00:03:58;63.10;;;26.70;;
21274;SDS011;36472;52.170;20.884;2022-12-04T00:06:28;66.37;;;27.20;;
21274;SDS011;36472;52.170;20.884;2022-12-04T00:08:57;62.90;;;27.93;;
21274;SDS011;36472;52.170;20.884;2022-12-04T00:11:27;61.87;;;26.13;;
21274;SDS011;36472;52.170;20.884;2022-12-04T00:13:58;59.33;;;25.80;;
21274;SDS011;36472;52.170;20.884;2022-12-04T00:16:34;59.33;;;26.83;;
21274;SDS011;36472;52.170;20.884;2022-12-04T00:19:03;60.30;;;25.63;;
21274;SDS011;36472;52.170;20.884;2022-12-04T00:21:32;62.97;;;27.30;;
21274;SDS011;36472;52.170;20.884;2022-12-04T00:24:01;59.33;;;27.53;;
21274;SDS011;36472;52.170;20.884;2022-12-04T00:26:30;66.40;;;27.93;;
21274;SDS011;36472;52.170;20.884;2022-12-04T00:28:59;61.97;;;26.10;;
21274;SDS011;36472;52.170;20.884;2022-12-04T00:31:29;62.47;;;27.03;;
21274;SDS011;36472;52.170;20.884;2022-12-04T00:33:59;69.97;;;28.60;;
21274;SDS011;36472;52.170;20.884;2022-12-04T00:36:34;60.33;;;26.10;;
21274;SDS011;36472;52.170;20.884;2022-12-04T00:39:03;68.60;;;27.30;;
21274;SDS011;36472;52.170;20.884;2022-12-04T00:41:32;67.47;;;27.27;;
21274;SDS011;36472;52.170;20.884;2022-12-04T00:44:02;69.03;;;30.27;;
21274;SDS011;36472;52.170;20.884;2022-12-04T00:46:32;66.53;;;28.13;;
21274;SDS011;36472;52.170;20.884;2022-12-04T00:49:02;60.23;;;28.47;;
21274;SDS011;36472;52.170;20.884;2022-12-04T00:51:31;63.67;;;27.37;;
21274;SDS011;36472;52.170;20.884;2022-12-04T00:53:59;64.63;;;28.23;;
21274;SDS011;36472;52.170;20.884;2022-12-04T00:56:28;62.70;;;28.03;;
21274;SDS011;36472;52.170;20.884;2022-12-04T00:58:57;63.13;;;27.93;;
21274;SDS011;36472;52.170;20.884;2022-12-04T01:01:28;60.87;;;26.90;;
21274;SDS011;36472;52.170;20.884;2022-12-04T01:03:57;60.37;;;26.53;;
21274;SDS011;36472;52.170;20.884;2022-12-04T01:06:28;56.67;;;25.40;;
21274;SDS011;36472;52.170;20.884;2022-12-04T01:09:00;55.37;;;24.60;;
21274;SDS011;36472;52.170;20.884;2022-12-04T01:11:31;59.37;;;26.77;;
21274;SDS011;36472;52.170;20.884;2022-12-04T01:14:00;59.67;;;25.63;;
21274;SDS011;36472;52.170;20.884;2022-12-04T01:16:30;60.67;;;26.33;;
21274;SDS011;36472;52.170;20.884;2022-12-04T01:19:02;57.80;;;27.50;;
21274;SDS011;36472;52.170;20.884;2022-12-04T01:21:33;62.83;;;26.80;;
21274;SDS011;36472;52.170;20.884;2022-12-04T01:24:04;61.93;;;27.67;;
21274;SDS011;36472;52.170;20.884;2022-12-04T01:26:34;54.87;;;25.73;;
21274;SDS011;36472;52.170;20.884;2022-12-04T01:29:02;54.17;;;25.27;;
21274;SDS011;36472;52.170;20.884;2022-12-04T01:31:31;60.10;;;27.20;;
21274;SDS011;36472;52.170;20.884;2022-12-04T01:34:00;61.10;;;27.30;;
21274;SDS011;36472;52.170;20.884;2022-12-04T01:36:29;60.27;;;27.20;;
21274;SDS011;36472;52.170;20.884;2022-12-04T01:38:59;58.60;;;26.20;;
21274;SDS011;36472;52.170;20.884;2022-12-04T01:41:29;51.97;;;25.80;;
21274;SDS011;36472;52.170;20.884;2022-12-04T01:44:05;54.10;;;23.37;;
21274;SDS011;36472;52.170;20.884;2022-12-04T01:46:46;55.23;;;25.87;;
21274;SDS011;36472;52.170;20.884;2022-12-04T01:49:19;50.63;;;23.43;;
21274;SDS011;36472;52.170;20.884;2022-12-04T01:51:53;54.63;;;24.73;;
21274;SDS011;36472;52.170;20.884;2022-12-04T01:54:29;53.40;;;24.90;;
21274;SDS011;36472;52.170;20.884;2022-12-04T01:57:03;61.57;;;24.47;;
21274;SDS011;36472;52.170;20.884;2022-12-04T01:59:40;56.80;;;23.20;;
21274;SDS011;36472;52.170;20.884;2022-12-04T02:02:15;52.23;;;23.93;;
21274;SDS011;36472;52.170;20.884;2022-12-04T02:04:51;50.80;;;23.33;;
21274;SDS011;36472;52.170;20.884;2022-12-04T02:07:21;57.17;;;24.70;;
21274;SDS011;36472;52.170;20.884;2022-12-04T02:09:51;57.87;;;25.23;;
21274;SDS011;36472;52.170;20.884;2022-12-04T02:12:23;59.00;;;26.43;;
21274;SDS011;36472;52.170;20.884;2022-12-04T02:15:01;54.00;;;25.40;;
21274;SDS011;36472;52.170;20.884;2022-12-04T02:17:44;54.43;;;24.53;;
21274;SDS011;36472;52.170;20.884;2022-12-04T02:20:25;51.27;;;24.23;;
21274;SDS011;36472;52.170;20.884;2022-12-04T02:26:22;46.67;;;22.03;;
21274;SDS011;36472;52.170;20.884;2022-12-04T02:29:09;50.50;;;22.07;;
21274;SDS011;36472;52.170;20.884;2022-12-04T02:31:49;46.07;;;22.13;;
21274;SDS011;36472;52.170;20.884;2022-12-04T02:34:28;49.43;;;24.13;;
21274;SDS011;36472;52.170;20.884;2022-12-04T02:37:08;47.10;;;22.83;;
21274;SDS011;36472;52.170;20.884;2022-12-04T02:39:48;47.10;;;21.20;;
21274;SDS011;36472;52.170;20.884;2022-12-04T02:42:25;50.50;;;22.90;;
21274;SDS011;36472;52.170;20.884;2022-12-04T02:45:09;52.93;;;23.63;;
21274;SDS011;36472;52.170;20.884;2022-12-04T02:47:44;52.43;;;23.93;;
21274;SDS011;36472;52.170;20.884;2022-12-04T02:50:15;49.03;;;22.60;;
21274;SDS011;36472;52.170;20.884;2022-12-04T02:52:49;47.53;;;23.03;;
21274;SDS011;36472;52.170;20.884;2022-12-04T02:55:24;50.50;;;21.63;;
21274;SDS011;36472;52.170;20.884;2022-12-04T02:58:03;54.70;;;23.17;;
21274;SDS011;36472;52.170;20.884;2022-12-04T03:00:40;57.40;;;24.60;;
21274;SDS011;36472;52.170;20.884;2022-12-04T03:03:13;52.50;;;22.10;;
21274;SDS011;36472;52.170;20.884;2022-12-04T03:05:50;52.30;;;24.27;;
21274;SDS011;36472;52.170;20.884;2022-12-04T03:08:27;52.93;;;24.33;;
21274;SDS011;36472;52.170;20.884;2022-12-04T03:11:05;56.00;;;25.07;;
21274;SDS011;36472;52.170;20.884;2022-12-04T03:13:34;60.00;;;25.37;;
21274;SDS011;36472;52.170;20.884;2022-12-04T03:16:11;58.07;;;25.00;;
21274;SDS011;36472;52.170;20.884;2022-12-04T03:18:45;58.73;;;25.33;;
21274;SDS011;36472;52.170;20.884;2022-12-04T03:21:21;51.60;;;24.00;;
21274;SDS011;36472;52.170;20.884;2022-12-04T03:23:56;55.67;;;24.17;;
21274;SDS011;36472;52.170;20.884;2022-12-04T03:26:32;50.57;;;23.80;;
21274;SDS011;36472;52.170;20.884;2022-12-04T03:29:09;54.07;;;24.03;;
21274;SDS011;36472;52.170;20.884;2022-12-04T03:31:45;52.47;;;23.20;;
21274;SDS011;36472;52.170;20.884;2022-12-04T03:34:22;55.87;;;23.80;;
21274;SDS011;36472;52.170;20.884;2022-12-04T03:37:00;55.10;;;23.40;;
21274;SDS011;36472;52.170;20.884;2022-12-04T03:39:41;53.37;;;23.07;;
21274;SDS011;36472;52.170;20.884;2022-12-04T03:42:23;55.10;;;23.13;;
21274;SDS011;36472;52.170;20.884;2022-12-04T03:44:57;58.47;;;25.40;;
21274;SDS011;36472;52.170;20.884;2022-12-04T03:47:33;54.90;;;23.43;;
21274;SDS011;36472;52.170;20.884;2022-12-04T03:50:11;55.47;;;23.47;;
21274;SDS011;36472;52.170;20.884;2022-12-04T03:52:51;51.57;;;24.17;;
21274;SDS011;36472;52.170;20.884;2022-12-04T03:55:31;53.10;;;24.33;;
21274;SDS011;36472;52.170;20.884;2022-12-04T03:58:11;52.43;;;23.70;;
21274;SDS011;36472;52.170;20.884;2022-12-04T04:00:46;50.30;;;23.00;;
21274;SDS011;36472;52.170;20.884;2022-12-04T04:03:21;47.77;;;21.60;;
21274;SDS011;36472;52.170;20.884;2022-12-04T04:05:56;51.27;;;22.50;;
21274;SDS011;36472;52.170;20.884;2022-12-04T04:08:34;49.20;;;22.40;;
21274;SDS011;36472;52.170;20.884;2022-12-04T04:11:11;48.53;;;21.17;;
21274;SDS011;36472;52.170;20.884;2022-12-04T04:13:45;47.00;;;22.00;;
21274;SDS011;36472;52.170;20.884;2022-12-04T04:16:38;50.30;;;22.00;;
21274;SDS011;36472;52.170;20.884;2022-12-04T04:19:41;51.37;;;22.23;;
21274;SDS011;36472;52.170;20.884;2022-12-04T04:22:34;52.33;;;22.43;;
21274;SDS011;36472;52.170;20.884;2022-12-04T04:25:37;49.77;;;21.93;;
21274;SDS011;36472;52.170;20.884;2022-12-04T04:28:29;49.57;;;22.10;;
21274;SDS011;36472;52.170;20.884;2022-12-04T04:31:04;50.37;;;23.43;;
21274;SDS011;36472;52.170;20.884;2022-12-04T04:33:46;50.87;;;23.63;;
21274;SDS011;36472;52.170;20.884;2022-12-04T04:36:26;54.73;;;23.60;;
21274;SDS011;36472;52.170;20.884;2022-12-04T04:39:08;54.97;;;23.97;;
21274;SDS011;36472;52.170;20.884;2022-12-04T04:41:49;48.43;;;23.07;;
21274;SDS011;36472;52.170;20.884;2022-12-04T04:44:27;55.43;;;23.63;;
21274;SDS011;36472;52.170;20.884;2022-12-04T04:47:06;50.30;;;23.07;;
21274;SDS011;36472;52.170;20.884;2022-12-04T04:49:41;47.87;;;22.63;;
21274;SDS011;36472;52.170;20.884;2022-12-04T04:52:14;51.40;;;24.33;;
21274;SDS011;36472;52.170;20.884;2022-12-04T04:54:48;51.33;;;22.83;;
21274;SDS011;36472;52.170;20.884;2022-12-04T04:57:26;47.97;;;23.70;;
21274;SDS011;36472;52.170;20.884;2022-12-04T04:59:57;50.27;;;22.70;;
21274;SDS011;36472;52.170;20.884;2022-12-04T05:02:27;51.70;;;23.13;;
21274;SDS011;36472;52.170;20.884;2022-12-04T05:04:55;54.17;;;24.17;;
21274;SDS011;36472;52.170;20.884;2022-12-04T05:07:26;47.73;;;23.27;;
21274;SDS011;36472;52.170;20.884;2022-12-04T05:09:54;53.33;;;23.20;;
21274;SDS011;36472;52.170;20.884;2022-12-04T05:12:24;45.87;;;21.50;;
21274;SDS011;36472;52.170;20.884;2022-12-04T05:14:52;49.23;;;22.03;;
21274;SDS011;36472;52.170;20.884;2022-12-04T05:17:21;43.77;;;20.60;;
21274;SDS011;36472;52.170;20.884;2022-12-04T05:19:50;50.60;;;22.17;;
21274;SDS011;36472;52.170;20.884;2022-12-04T05:22:24;50.87;;;21.47;;
21274;SDS011;36472;52.170;20.884;2022-12-04T05:24:57;44.27;;;21.60;;
21274;SDS011;36472;52.170;20.884;2022-12-04T05:27:29;46.47;;;21.80;;
21274;SDS011;36472;52.170;20.884;2022-12-04T05:29:58;41.17;;;20.93;;
21274;SDS011;36472;52.170;20.884;2022-12-04T05:32:28;47.13;;;21.10;;
21274;SDS011;36472;52.170;20.884;2022-12-04T05:34:57;49.07;;;22.47;;
21274;SDS011;36472;52.170;20.884;2022-12-04T05:37:27;48.83;;;21.43;;
21274;SDS011;36472;52.170;20.884;2022-12-04T05:39:56;45.20;;;21.97;;
21274;SDS011;36472;52.170;20.884;2022-12-04T05:42:25;45.07;;;21.63;;
21274;SDS011;36472;52.170;20.884;2022-12-04T05:44:53;45.57;;;20.63;;
21274;SDS011;36472;52.170;20.884;2022-12-04T05:47:22;47.97;;;22.13;;
21274;SDS011;36472;52.170;20.884;2022-12-04T05:49:51;45.60;;;20.53;;
21274;SDS011;36472;52.170;20.884;2022-12-04T05:52:20;41.40;;;20.40;;
21274;SDS011;36472;52.170;20.884;2022-12-04T05:54:50;44.87;;;21.50;;
21274;SDS011;36472;52.170;20.884;2022-12-04T05:57:19;40.67;;;19.83;;
21274;SDS011;36472;52.170;20.884;2022-12-04T05:59:51;41.23;;;19.00;;
21274;SDS011;36472;52.170;20.884;2022-12-04T06:02:20;39.87;;;19.83;;
21274;SDS011;36472;52.170;20.884;2022-12-04T06:04:49;43.93;;;20.43;;
21274;SDS011;36472;52.170;20.884;2022-12-04T06:07:18;40.97;;;19.30;;
21274;SDS011;36472;52.170;20.884;2022-12-04T06:09:47;41.73;;;19.87;;
21274;SDS011;36472;52.170;20.884;2022-12-04T06:12:17;43.83;;;20.53;;
21274;SDS011;36472;52.170;20.884;2022-12-04T06:14:46;40.97;;;20.07;;
21274;SDS011;36472;52.170;20.884;2022-12-04T06:17:14;41.30;;;18.67;;
21274;SDS011;36472;52.170;20.884;2022-12-04T06:19:43;41.90;;;19.47;;
21274;SDS011;36472;52.170;20.884;2022-12-04T06:22:12;42.80;;;20.47;;
21274;SDS011;36472;52.170;20.884;2022-12-04T06:24:41;44.27;;;21.37;;
21274;SDS011;36472;52.170;20.884;2022-12-04T06:27:10;40.30;;;20.20;;
21274;SDS011;36472;52.170;20.884;2022-12-04T06:29:56;42.23;;;20.20;;
21274;SDS011;36472;52.170;20.884;2022-12-04T06:32:25;39.00;;;19.50;;
21274;SDS011;36472;52.170;20.884;2022-12-04T06:34:54;43.30;;;20.93;;
21274;SDS011;36472;52.170;20.884;2022-12-04T06:37:23;42.37;;;19.87;;
21274;SDS011;36472;52.170;20.884;2022-12-04T06:39:52;44.23;;;21.20;;
21274;SDS011;36472;52.170;20.884;2022-12-04T06:42:22;45.57;;;20.73;;
21274;SDS011;36472;52.170;20.884;2022-12-04T06:44:50;47.73;;;22.33;;
21274;SDS011;36472;52.170;20.884;2022-12-04T06:47:21;46.93;;;21.60;;
21274;SDS011;36472;52.170;20.884;2022-12-04T06:49:49;46.87;;;22.00;;
21274;SDS011;36472;52.170;20.884;2022-12-04T06:52:18;46.93;;;22.30;;
21274;SDS011;36472;52.170;20.884;2022-12-04T06:54:47;41.67;;;21.50;;
21274;SDS011;36472;52.170;20.884;2022-12-04T06:57:16;44.03;;;20.03;;
21274;SDS011;36472;52.170;20.884;2022-12-04T06:59:44;44.23;;;21.37;;
21274;SDS011;36472;52.170;20.884;2022-12-04T07:02:13;44.57;;;20.97;;
21274;SDS011;36472;52.170;20.884;2022-12-04T07:04:44;42.60;;;21.30;;
21274;SDS011;36472;52.170;20.884;2022-12-04T07:07:13;42.40;;;20.07;;
21274;SDS011;36472;52.170;20.884;2022-12-04T07:09:41;47.17;;;22.33;;
21274;SDS011;36472;52.170;20.884;2022-12-04T07:12:12;41.03;;;20.83;;
21274;SDS011;36472;52.170;20.884;2022-12-04T07:14:41;42.93;;;22.20;;
21274;SDS011;36472;52.170;20.884;2022-12-04T07:17:10;42.87;;;21.63;;
21274;SDS011;36472;52.170;20.884;2022-12-04T07:19:38;47.03;;;20.87;;
21274;SDS011;36472;52.170;20.884;2022-12-04T07:22:09;45.70;;;22.30;;
21274;SDS011;36472;52.170;20.884;2022-12-04T07:24:37;43.30;;;21.33;;
21274;SDS011;36472;52.170;20.884;2022-12-04T07:27:06;46.73;;;21.83;;
21274;SDS011;36472;52.170;20.884;2022-12-04T07:29:35;45.03;;;20.77;;
21274;SDS011;36472;52.170;20.884;2022-12-04T07:32:04;41.60;;;21.13;;
21274;SDS011;36472;52.170;20.884;2022-12-04T07:34:32;47.50;;;21.13;;
21274;SDS011;36472;52.170;20.884;2022-12-04T07:37:02;46.53;;;21.60;;
21274;SDS011;36472;52.170;20.884;2022-12-04T07:39:32;44.97;;;20.60;;
21274;SDS011;36472;52.170;20.884;2022-12-04T07:42:02;45.93;;;20.83;;
21274;SDS011;36472;52.170;20.884;2022-12-04T07:44:31;45.27;;;21.17;;
21274;SDS011;36472;52.170;20.884;2022-12-04T07:47:00;44.30;;;21.67;;
21274;SDS011;36472;52.170;20.884;2022-12-04T07:49:28;43.90;;;22.03;;
21274;SDS011;36472;52.170;20.884;2022-12-04T07:51:57;45.57;;;21.87;;
21274;SDS011;36472;52.170;20.884;2022-12-04T07:54:26;43.07;;;21.47;;
21274;SDS011;36472;52.170;20.884;2022-12-04T07:56:56;40.87;;;20.80;;
21274;SDS011;36472;52.170;20.884;2022-12-04T07:59:25;44.50;;;21.03;;
21274;SDS011;36472;52.170;20.884;2022-12-04T08:01:54;46.60;;;21.80;;
21274;SDS011;36472;52.170;20.884;2022-12-04T08:04:22;39.97;;;20.77;;
21274;SDS011;36472;52.170;20.884;2022-12-04T08:06:51;39.23;;;20.03;;
21274;SDS011;36472;52.170;20.884;2022-12-04T08:09:20;45.80;;;21.30;;
21274;SDS011;36472;52.170;20.884;2022-12-04T08:11:49;39.17;;;20.23;;
21274;SDS011;36472;52.170;20.884;2022-12-04T08:14:19;39.50;;;21.37;;
21274;SDS011;36472;52.170;20.884;2022-12-04T08:16:48;43.83;;;20.83;;
21274;SDS011;36472;52.170;20.884;2022-12-04T08:19:18;41.77;;;21.40;;
21274;SDS011;36472;52.170;20.884;2022-12-04T08:21:48;40.50;;;20.10;;
21274;SDS011;36472;52.170;20.884;2022-12-04T08:24:17;41.73;;;21.03;;
21274;SDS011;36472;52.170;20.884;2022-12-04T08:26:46;40.90;;;22.03;;
21274;SDS011;36472;52.170;20.884;2022-12-04T08:29:14;38.93;;;20.73;;
21274;SDS011;36472;52.170;20.884;2022-12-04T08:31:45;38.63;;;20.20;;
21274;SDS011;36472;52.170;20.884;2022-12-04T08:34:13;40.80;;;21.43;;
21274;SDS011;36472;52.170;20.884;2022-12-04T08:36:42;39.43;;;20.00;;
21274;SDS011;36472;52.170;20.884;2022-12-04T08:39:11;35.07;;;19.90;;
21274;SDS011;36472;52.170;20.884;2022-12-04T08:41:40;44.77;;;20.67;;
21274;SDS011;36472;52.170;20.884;2022-12-04T08:44:09;36.57;;;19.97;;
21274;SDS011;36472;52.170;20.884;2022-12-04T08:46:38;45.23;;;21.33;;
21274;SDS011;36472;52.170;20.884;2022-12-04T08:49:08;38.90;;;20.53;;
21274;SDS011;36472;52.170;20.884;2022-12-04T08:51:38;36.57;;;19.47;;
21274;SDS011;36472;52.170;20.884;2022-12-04T08:54:07;37.77;;;20.67;;
21274;SDS011;36472;52.170;20.884;2022-12-04T08:56:40;37.87;;;20.77;;
21274;SDS011;36472;52.170;20.884;2022-12-04T08:59:10;40.07;;;21.80;;
21274;SDS011;36472;52.170;20.884;2022-12-04T09:01:40;40.57;;;20.97;;
21274;SDS011;36472;52.170;20.884;2022-12-04T09:04:10;38.37;;;20.53;;
21274;SDS011;36472;52.170;20.884;2022-12-04T09:06:39;37.90;;;20.07;;
21274;SDS011;36472;52.170;20.884;2022-12-04T09:09:08;40.43;;;19.90;;
21274;SDS011;36472;52.170;20.884;2022-12-04T09:11:37;40.73;;;21.27;;
21274;SDS011;36472;52.170;20.884;2022-12-04T09:14:06;38.97;;;21.30;;
21274;SDS011;36472;52.170;20.884;2022-12-04T09:16:34;37.30;;;20.10;;
21274;SDS011;36472;52.170;20.884;2022-12-04T09:19:03;38.07;;;20.67;;
21274;SDS011;36472;52.170;20.884;2022-12-04T09:21:33;39.17;;;20.03;;
21274;SDS011;36472;52.170;20.884;2022-12-04T09:24:02;40.53;;;21.43;;
21274;SDS011;36472;52.170;20.884;2022-12-04T09:26:31;36.03;;;19.70;;
21274;SDS011;36472;52.170;20.884;2022-12-04T09:29:03;39.80;;;20.27;;
21274;SDS011;36472;52.170;20.884;2022-12-04T09:31:33;39.00;;;20.33;;
21274;SDS011;36472;52.170;20.884;2022-12-04T09:34:03;35.17;;;19.13;;
21274;SDS011;36472;52.170;20.884;2022-12-04T09:36:32;37.73;;;19.93;;
21274;SDS011;36472;52.170;20.884;2022-12-04T09:39:02;38.03;;;20.50;;
21274;SDS011;36472;52.170;20.884;2022-12-04T09:44:49;33.07;;;18.77;;
21274;SDS011;36472;52.170;20.884;2022-12-04T09:47:27;37.07;;;19.63;;
21274;SDS011;36472;52.170;20.884;2022-12-04T09:50:03;37.73;;;20.33;;
21274;SDS011;36472;52.170;20.884;2022-12-04T09:52:48;40.20;;;21.20;;
21274;SDS011;36472;52.170;20.884;2022-12-04T09:55:23;34.87;;;19.93;;
21274;SDS011;36472;52.170;20.884;2022-12-04T09:57:59;35.23;;;19.63;;
21274;SDS011;36472;52.170;20.884;2022-12-04T10:00:31;41.80;;;20.63;;
21274;SDS011;36472;52.170;20.884;2022-12-04T10:03:12;36.37;;;20.83;;
21274;SDS011;36472;52.170;20.884;2022-12-04T10:05:46;38.57;;;21.23;;
21274;SDS011;36472;52.170;20.884;2022-12-04T10:08:24;40.97;;;21.77;;
21274;SDS011;36472;52.170;20.884;2022-12-04T10:10:59;51.40;;;30.53;;
21274;SDS011;36472;52.170;20.884;2022-12-04T10:13:51;40.87;;;22.20;;
21274;SDS011;36472;52.170;20.884;2022-12-04T10:16:54;40.17;;;21.77;;
21274;SDS011;36472;52.170;20.884;2022-12-04T10:19:58;39.33;;;23.23;;
21274;SDS011;36472;52.170;20.884;2022-12-04T10:22:42;39.37;;;21.53;;
21274;SDS011;36472;52.170;20.884;2022-12-04T10:25:25;40.13;;;24.00;;
21274;SDS011;36472;52.170;20.884;2022-12-04T10:27:56;39.60;;;22.73;;
21274;SDS011;36472;52.170;20.884;2022-12-04T10:30:33;110.30;;;83.53;;
21274;SDS011;36472;52.170;20.884;2022-12-04T10:33:13;41.97;;;23.40;;
21274;SDS011;36472;52.170;20.884;2022-12-04T10:35:47;42.73;;;25.87;;
21274;SDS011;36472;52.170;20.884;2022-12-04T10:38:24;37.23;;;22.57;;
21274;SDS011;36472;52.170;20.884;2022-12-04T10:41:04;32.57;;;19.53;;
21274;SDS011;36472;52.170;20.884;2022-12-04T10:43:44;37.50;;;21.40;;
21274;SDS011;36472;52.170;20.884;2022-12-04T10:46:17;35.10;;;22.00;;
21274;SDS011;36472;52.170;20.884;2022-12-04T10:48:52;39.03;;;23.90;;
21274;SDS011;36472;52.170;20.884;2022-12-04T10:51:27;36.83;;;21.57;;
21274;SDS011;36472;52.170;20.884;2022-12-04T10:54:08;35.53;;;22.00;;
21274;SDS011;36472;52.170;20.884;2022-12-04T10:56:51;37.70;;;21.43;;
21274;SDS011;36472;52.170;20.884;2022-12-04T10:59:22;38.53;;;21.20;;
21274;SDS011;36472;52.170;20.884;2022-12-04T11:01:58;40.97;;;21.70;;
21274;SDS011;36472;52.170;20.884;2022-12-04T11:04:33;33.23;;;20.73;;
21274;SDS011;36472;52.170;20.884;2022-12-04T11:07:03;36.83;;;22.80;;
21274;SDS011;36472;52.170;20.884;2022-12-04T11:09:37;33.90;;;20.07;;
21274;SDS011;36472;52.170;20.884;2022-12-04T11:12:16;30.83;;;19.47;;
21274;SDS011;36472;52.170;20.884;2022-12-04T11:14:57;36.40;;;20.43;;
21274;SDS011;36472;52.170;20.884;2022-12-04T11:17:28;33.23;;;20.37;;
21274;SDS011;36472;52.170;20.884;2022-12-04T11:19:57;34.23;;;20.43;;
21274;SDS011;36472;52.170;20.884;2022-12-04T11:22:27;30.20;;;18.10;;
21274;SDS011;36472;52.170;20.884;2022-12-04T11:24:56;31.23;;;19.30;;
21274;SDS011;36472;52.170;20.884;2022-12-04T11:27:29;31.97;;;19.70;;
21274;SDS011;36472;52.170;20.884;2022-12-04T11:30:06;29.13;;;17.90;;
21274;SDS011;36472;52.170;20.884;2022-12-04T11:32:40;29.30;;;18.57;;
21274;SDS011;36472;52.170;20.884;2022-12-04T11:35:13;31.93;;;18.17;;
21274;SDS011;36472;52.170;20.884;2022-12-04T11:37:50;27.97;;;18.23;;
21274;SDS011;36472;52.170;20.884;2022-12-04T11:40:22;26.77;;;16.70;;
21274;SDS011;36472;52.170;20.884;2022-12-04T11:43:00;30.03;;;17.97;;
21274;SDS011;36472;52.170;20.884;2022-12-04T11:45:31;28.97;;;17.43;;
21274;SDS011;36472;52.170;20.884;2022-12-04T11:48:02;31.83;;;19.07;;
21274;SDS011;36472;52.170;20.884;2022-12-04T11:50:43;27.37;;;18.00;;
21274;SDS011;36472;52.170;20.884;2022-12-04T11:53:26;32.30;;;17.40;;
21274;SDS011;36472;52.170;20.884;2022-12-04T11:56:13;30.17;;;17.93;;
21274;SDS011;36472;52.170;20.884;2022-12-04T12:14:55;26.80;;;16.77;;
21274;SDS011;36472;52.170;20.884;2022-12-04T12:17:41;28.53;;;16.33;;
21274;SDS011;36472;52.170;20.884;2022-12-04T12:20:18;26.53;;;17.07;;
21274;SDS011;36472;52.170;20.884;2022-12-04T12:23:01;29.20;;;17.63;;
21274;SDS011;36472;52.170;20.884;2022-12-04T12:25:51;28.37;;;17.03;;
21274;SDS011;36472;52.170;20.884;2022-12-04T12:28:36;27.80;;;17.63;;
21274;SDS011;36472;52.170;20.884;2022-12-04T12:31:30;30.60;;;18.73;;
21274;SDS011;36472;52.170;20.884;2022-12-04T12:34:26;28.03;;;16.10;;
21274;SDS011;36472;52.170;20.884;2022-12-04T12:37:06;30.17;;;17.27;;
21274;SDS011;36472;52.170;20.884;2022-12-04T12:39:50;29.00;;;17.20;;
21274;SDS011;36472;52.170;20.884;2022-12-04T12:42:27;32.37;;;19.10;;
21274;SDS011;36472;52.170;20.884;2022-12-04T12:45:05;43.00;;;24.23;;
21274;SDS011;36472;52.170;20.884;2022-12-04T12:47:59;33.13;;;19.83;;
21274;SDS011;36472;52.170;20.884;2022-12-04T12:50:40;30.17;;;17.77;;
21274;SDS011;36472;52.170;20.884;2022-12-04T12:53:37;34.57;;;19.33;;
21274;SDS011;36472;52.170;20.884;2022-12-04T12:56:10;31.23;;;19.10;;
21274;SDS011;36472;52.170;20.884;2022-12-04T12:58:41;32.87;;;18.80;;
21274;SDS011;36472;52.170;20.884;2022-12-04T13:01:16;32.00;;;19.50;;
21274;SDS011;36472;52.170;20.884;2022-12-04T13:03:56;35.00;;;19.97;;
21274;SDS011;36472;52.170;20.884;2022-12-04T13:06:33;38.70;;;22.23;;
21274;SDS011;36472;52.170;20.884;2022-12-04T13:09:08;32.87;;;20.83;;
21274;SDS011;36472;52.170;20.884;2022-12-04T13:11:45;36.90;;;23.00;;
21274;SDS011;36472;52.170;20.884;2022-12-04T13:14:19;32.87;;;20.23;;
21274;SDS011;36472;52.170;20.884;2022-12-04T13:16:48;40.63;;;26.37;;
21274;SDS011;36472;52.170;20.884;2022-12-04T13:19:25;47.13;;;27.80;;
21274;SDS011;36472;52.170;20.884;2022-12-04T13:22:01;31.40;;;21.13;;
21274;SDS011;36472;52.170;20.884;2022-12-04T13:24:55;33.57;;;20.37;;
21274;SDS011;36472;52.170;20.884;2022-12-04T13:27:48;36.93;;;23.73;;
21274;SDS011;36472;52.170;20.884;2022-12-04T13:30:35;32.27;;;20.13;;
21274;SDS011;36472;52.170;20.884;2022-12-04T13:33:25;37.90;;;26.67;;
21274;SDS011;36472;52.170;20.884;2022-12-04T13:39:22;35.10;;;20.60;;
21274;SDS011;36472;52.170;20.884;2022-12-04T13:42:31;34.17;;;20.20;;
21274;SDS011;36472;52.170;20.884;2022-12-04T13:45:02;37.93;;;22.63;;
21274;SDS011;36472;52.170;20.884;2022-12-04T13:47:37;36.17;;;21.87;;
21274;SDS011;36472;52.170;20.884;2022-12-04T13:50:08;35.93;;;21.40;;
21274;SDS011;36472;52.170;20.884;2022-12-04T13:52:57;32.43;;;20.60;;
21274;SDS011;36472;52.170;20.884;2022-12-04T13:55:29;31.57;;;19.03;;
21274;SDS011;36472;52.170;20.884;2022-12-04T13:58:00;33.27;;;20.23;;
21274;SDS011;36472;52.170;20.884;2022-12-04T14:00:58;33.30;;;21.40;;
21274;SDS011;36472;52.170;20.884;2022-12-04T14:03:30;35.30;;;21.93;;
21274;SDS011;36472;52.170;20.884;2022-12-04T14:06:17;34.90;;;21.33;;
21274;SDS011;36472;52.170;20.884;2022-12-04T14:08:54;37.43;;;21.93;;
21274;SDS011;36472;52.170;20.884;2022-12-04T14:11:27;34.23;;;20.47;;
21274;SDS011;36472;52.170;20.884;2022-12-04T14:14:14;33.20;;;20.53;;
21274;SDS011;36472;52.170;20.884;2022-12-04T14:16:53;31.87;;;19.73;;
21274;SDS011;36472;52.170;20.884;2022-12-04T14:19:32;35.30;;;22.40;;
21274;SDS011;36472;52.170;20.884;2022-12-04T14:22:23;34.90;;;20.10;;
21274;SDS011;36472;52.170;20.884;2022-12-04T14:25:07;32.07;;;19.33;;
21274;SDS011;36472;52.170;20.884;2022-12-04T14:28:11;34.50;;;21.13;;
21274;SDS011;36472;52.170;20.884;2022-12-04T14:30:57;33.30;;;19.10;;
21274;SDS011;36472;52.170;20.884;2022-12-04T14:33:42;33.10;;;19.13;;
21274;SDS011;36472;52.170;20.884;2022-12-04T14:36:18;33.97;;;20.03;;
21274;SDS011;36472;52.170;20.884;2022-12-04T14:38:55;32.63;;;20.07;;
21274;SDS011;36472;52.170;20.884;2022-12-04T14:41:32;35.20;;;20.60;;
21274;SDS011;36472;52.170;20.884;2022-12-04T14:44:01;32.63;;;21.03;;
21274;SDS011;36472;52.170;20.884;2022-12-04T14:46:33;36.80;;;21.17;;
21274;SDS011;36472;52.170;20.884;2022-12-04T14:49:16;34.57;;;21.20;;
21274;SDS011;36472;52.170;20.884;2022-12-04T14:52:04;33.33;;;20.87;;
21274;SDS011;36472;52.170;20.884;2022-12-04T14:54:43;35.73;;;19.63;;
21274;SDS011;36472;52.170;20.884;2022-12-04T14:57:31;32.10;;;19.17;;
21274;SDS011;36472;52.170;20.884;2022-12-04T15:00:13;34.83;;;19.47;;
21274;SDS011;36472;52.170;20.884;2022-12-04T15:02:48;33.37;;;20.50;;
21274;SDS011;36472;52.170;20.884;2022-12-04T15:05:23;33.70;;;20.97;;
21274;SDS011;36472;52.170;20.884;2022-12-04T15:07:56;36.53;;;21.53;;
21274;SDS011;36472;52.170;20.884;2022-12-04T15:10:29;39.30;;;23.20;;
21274;SDS011;36472;52.170;20.884;2022-12-04T15:13:27;30.63;;;20.23;;
21274;SDS011;36472;52.170;20.884;2022-12-04T15:16:06;34.93;;;21.27;;
21274;SDS011;36472;52.170;20.884;2022-12-04T15:18:37;37.97;;;21.33;;